createdAt,value
2022-12-08T00:00:00.098Z,10.52
2022-12-08T00:05:21.021Z,11.07
2022-12-08T00:10:47.964Z,14.70
2022-12-08T00:15:45.246Z,11.93
2022-12-08T00:20:58.001Z,11.73
2022-12-08T00:26:05.088Z,16.30
2022-12-08T00:31:09.393Z,11.07
2022-12-08T00:36:14.224Z,9.00
2022-12-08T00:41:40.582Z,19.80
2022-12-08T00:46:42.877Z,9.53
2022-12-08T00:51:45.076Z,13.82
2022-12-08T00:56:47.577Z,9.45
2022-12-08T01:01:49.674Z,8.32
2022-12-08T01:06:51.873Z,11.50
2022-12-08T01:11:53.942Z,9.23
2022-12-08T01:16:56.131Z,12.32
2022-12-08T01:21:58.223Z,11.77
2022-12-08T01:27:00.283Z,9.80
2022-12-08T01:32:02.797Z,12.55
2022-12-08T01:37:04.998Z,9.85
2022-12-08T01:42:21.926Z,10.05
2022-12-08T01:47:29.597Z,9.10
2022-12-08T01:52:48.487Z,13.30
2022-12-08T01:58:13.404Z,10.43
2022-12-08T02:03:31.525Z,8.57
2022-12-08T02:08:35.874Z,9.53
2022-12-08T02:13:38.730Z,9.07
2022-12-08T02:24:42.408Z,10.45
2022-12-08T02:30:08.692Z,9.80
2022-12-08T02:35:23.896Z,10.93
2022-12-08T02:40:34.473Z,6.93
2022-12-08T02:45:44.130Z,9.40
2022-12-08T02:50:46.275Z,9.83
2022-12-08T02:56:04.102Z,8.57
2022-12-08T03:01:25.787Z,8.67
2022-12-08T03:06:31.260Z,8.77
2022-12-08T03:11:46.467Z,5.30
2022-12-08T03:16:52.617Z,6.80
2022-12-08T03:22:06.996Z,6.60
2022-12-08T03:27:13.491Z,5.47
2022-12-08T03:32:34.600Z,9.23
2022-12-08T03:37:37.953Z,6.30
2022-12-08T03:42:40.061Z,8.93
2022-12-08T03:47:42.050Z,8.23
2022-12-08T03:52:44.139Z,8.40
2022-12-08T03:57:46.134Z,9.05
2022-12-08T04:02:48.191Z,7.35
2022-12-08T04:07:50.727Z,8.10
2022-12-08T04:12:53.106Z,10.32
2022-12-08T04:17:55.228Z,9.30
2022-12-08T04:22:57.248Z,6.65
2022-12-08T04:27:59.418Z,9.88
2022-12-08T04:33:01.885Z,8.23
2022-12-08T04:38:04.442Z,8.82
2022-12-08T04:43:06.906Z,9.02
2022-12-08T04:48:09.865Z,8.02
2022-12-08T04:53:13.395Z,7.73
2022-12-08T04:58:17.834Z,5.67
2022-12-08T05:03:25.257Z,6.60
2022-12-08T05:08:30.657Z,8.30
2022-12-08T05:18:36.072Z,7.17
2022-12-08T05:23:38.288Z,6.97
2022-12-08T05:28:42.365Z,6.75
2022-12-08T05:33:46.087Z,7.63
2022-12-08T05:38:48.928Z,6.80
2022-12-08T05:43:53.657Z,8.13
2022-12-08T05:48:55.785Z,7.63
2022-12-08T05:53:59.731Z,10.77
2022-12-08T05:59:01.909Z,7.07
2022-12-08T06:04:05.068Z,6.50
2022-12-08T06:09:07.269Z,8.87
2022-12-08T06:14:13.032Z,7.00
2022-12-08T06:19:15.830Z,8.80
2022-12-08T06:24:18.249Z,8.23
2022-12-08T06:29:20.818Z,10.45
2022-12-08T06:34:23.272Z,8.48
2022-12-08T06:39:25.356Z,6.82
2022-12-08T06:44:27.412Z,8.90
2022-12-08T06:49:29.457Z,7.50
2022-12-08T06:54:31.576Z,9.73
2022-12-08T06:59:33.712Z,9.43
2022-12-08T07:04:35.771Z,15.55
2022-12-08T07:09:37.972Z,9.63
2022-12-08T07:14:40.117Z,11.70
2022-12-08T07:19:42.174Z,11.50
2022-12-08T07:24:44.264Z,10.32
2022-12-08T07:29:46.297Z,9.75
2022-12-08T07:34:48.397Z,12.40
2022-12-08T07:39:50.462Z,10.65
2022-12-08T07:44:52.607Z,7.37
2022-12-08T07:49:55.124Z,8.85
2022-12-08T07:59:59.138Z,12.83
2022-12-08T08:05:01.365Z,9.73
2022-12-08T08:10:04.440Z,9.48
2022-12-08T08:15:08.447Z,13.47
2022-12-08T08:20:11.348Z,14.80
2022-12-08T08:25:14.954Z,10.47
2022-12-08T08:30:20.762Z,10.77
2022-12-08T08:35:23.366Z,12.93
2022-12-08T08:40:25.479Z,18.42
2022-12-08T08:45:28.073Z,9.73
2022-12-08T08:55:40.156Z,9.60
2022-12-08T09:05:45.063Z,12.30
2022-12-08T09:15:49.385Z,11.60
2022-12-08T09:20:51.700Z,13.35
2022-12-08T09:25:53.765Z,17.02
2022-12-08T09:30:56.023Z,12.10
2022-12-08T09:36:03.444Z,12.82
2022-12-08T09:41:19.804Z,20.25
2022-12-08T09:46:22.255Z,14.40
2022-12-08T09:51:26.727Z,17.73
2022-12-08T09:56:33.718Z,15.70
2022-12-08T10:01:41.403Z,16.85
2022-12-08T10:07:17.918Z,18.45
2022-12-08T10:12:34.108Z,18.85
2022-12-08T10:17:44.503Z,17.57
2022-12-08T10:22:50.567Z,16.90
2022-12-08T10:27:54.740Z,14.23
2022-12-08T10:32:57.002Z,16.27
2022-12-08T10:38:02.332Z,16.52
2022-12-08T10:43:06.869Z,14.57
2022-12-08T10:48:19.021Z,13.17
2022-12-08T10:53:33.651Z,12.30
2022-12-08T10:58:36.190Z,9.85
2022-12-08T11:03:57.217Z,10.02
2022-12-08T11:09:22.513Z,10.35
2022-12-08T11:14:44.052Z,12.00
2022-12-08T11:20:18.404Z,10.60
2022-12-08T11:25:27.545Z,12.90
2022-12-08T11:30:36.105Z,14.55
2022-12-08T11:35:42.610Z,10.85
2022-12-08T11:40:45.230Z,9.30
2022-12-08T11:51:13.392Z,6.90
2022-12-08T11:56:26.349Z,10.30
2022-12-08T12:01:28.572Z,10.68
2022-12-08T12:07:05.507Z,9.90
2022-12-08T12:12:22.627Z,10.05
2022-12-08T12:18:05.384Z,11.75
2022-12-08T12:23:22.637Z,9.35
2022-12-08T12:28:28.202Z,9.25
2022-12-08T12:33:31.592Z,8.35
2022-12-08T12:38:59.159Z,14.80
2022-12-08T12:44:13.197Z,10.30
2022-12-08T12:49:40.245Z,8.95
2022-12-08T12:54:43.447Z,6.75
2022-12-08T12:59:55.188Z,7.35
2022-12-08T13:04:59.867Z,6.67
2022-12-08T13:10:11.335Z,6.50
2022-12-08T13:15:20.111Z,6.35
2022-12-08T13:20:24.894Z,9.45
2022-12-08T13:25:45.233Z,8.45
2022-12-08T13:30:51.355Z,9.25
2022-12-08T13:36:25.788Z,10.50
2022-12-08T13:41:47.924Z,8.95
2022-12-08T13:47:24.600Z,8.40
2022-12-08T13:57:42.755Z,10.65
2022-12-08T14:07:55.466Z,8.95
2022-12-08T14:13:05.154Z,8.80
2022-12-08T14:18:24.549Z,11.45
2022-12-08T14:23:26.697Z,7.90
2022-12-08T14:28:28.783Z,8.63
2022-12-08T14:33:31.516Z,11.20
2022-12-08T14:43:36.206Z,17.03
2022-12-08T14:53:46.232Z,10.53
2022-12-08T14:58:51.315Z,11.70
2022-12-08T15:03:55.488Z,14.20
2022-12-08T15:08:59.549Z,19.60
2022-12-08T15:14:02.703Z,13.00
2022-12-08T15:19:31.134Z,18.45
2022-12-08T15:24:35.547Z,12.55
2022-12-08T15:29:37.594Z,12.65
2022-12-08T15:34:39.804Z,12.35
2022-12-08T15:39:41.936Z,13.80
2022-12-08T15:44:44.417Z,12.45
2022-12-08T15:49:49.610Z,13.73
2022-12-08T15:54:51.764Z,15.50
2022-12-08T15:59:53.896Z,12.23
2022-12-08T16:10:24.030Z,16.10
2022-12-08T16:26:35.532Z,12.10
2022-12-08T16:31:37.056Z,12.65
2022-12-08T16:36:39.231Z,44.83
2022-12-08T16:42:00.551Z,15.60
2022-12-08T16:47:09.097Z,16.85
2022-12-08T16:52:11.305Z,13.80
2022-12-08T16:57:13.397Z,13.50
2022-12-08T17:02:16.617Z,25.90
2022-12-08T17:07:18.943Z,12.15
2022-12-08T17:12:21.086Z,20.80
2022-12-08T17:17:23.150Z,26.77
2022-12-08T17:22:25.408Z,19.45
2022-12-08T17:27:27.941Z,24.10
2022-12-08T17:37:32.206Z,19.55
2022-12-08T17:42:34.319Z,19.45
2022-12-08T17:47:37.083Z,15.60
2022-12-08T17:52:39.232Z,17.80
2022-12-08T17:57:41.382Z,23.73
2022-12-08T18:02:44.512Z,34.60
2022-12-08T18:07:46.992Z,27.55
2022-12-08T18:12:49.083Z,19.85
2022-12-08T18:17:51.752Z,19.50
2022-12-08T18:22:53.909Z,17.45
2022-12-08T18:27:55.949Z,16.27
2022-12-08T18:32:58.012Z,15.77
2022-12-08T18:38:00.123Z,18.87
2022-12-08T18:43:02.140Z,16.67
2022-12-08T18:48:04.778Z,26.95
2022-12-08T18:58:10.798Z,16.10
2022-12-08T19:03:13.004Z,15.65
2022-12-08T19:08:15.245Z,15.77
2022-12-08T19:13:17.323Z,17.55
2022-12-08T19:18:19.531Z,20.98
2022-12-08T19:23:21.589Z,21.10
2022-12-08T19:28:24.020Z,20.02
2022-12-08T19:33:26.058Z,16.48
2022-12-08T19:38:28.121Z,19.00
2022-12-08T19:43:48.651Z,13.32
2022-12-08T19:48:50.743Z,13.70
2022-12-08T19:53:52.822Z,21.60
2022-12-08T19:58:54.935Z,20.80
2022-12-08T20:03:57.049Z,18.98
2022-12-08T20:09:00.351Z,19.12
2022-12-08T20:14:02.447Z,21.30
2022-12-08T20:19:04.609Z,26.70
2022-12-08T20:24:07.106Z,26.70
2022-12-08T20:34:15.726Z,24.00
2022-12-08T20:39:18.727Z,24.75
2022-12-08T20:44:20.950Z,25.67
2022-12-08T20:49:23.167Z,27.40
2022-12-08T20:54:25.202Z,26.02
2022-12-08T20:59:27.780Z,23.83
2022-12-08T21:09:32.148Z,20.27
2022-12-08T21:14:34.333Z,23.90
2022-12-08T21:19:36.623Z,34.90
2022-12-08T21:24:38.721Z,21.98
2022-12-08T21:29:40.824Z,21.52
2022-12-08T21:34:44.025Z,20.58
2022-12-08T21:39:46.293Z,20.27
2022-12-08T21:44:48.580Z,20.50
2022-12-08T21:49:50.665Z,22.13
2022-12-08T21:54:53.093Z,20.73
2022-12-08T21:59:55.895Z,20.73
2022-12-08T22:04:58.350Z,20.70
2022-12-08T22:15:07.625Z,18.70
2022-12-08T22:20:15.097Z,18.33
2022-12-08T22:25:17.348Z,18.47
2022-12-08T22:30:19.459Z,14.32
2022-12-08T22:35:21.913Z,11.65
2022-12-08T22:40:24.165Z,16.17
2022-12-08T22:45:26.377Z,19.30
2022-12-08T22:50:28.826Z,18.15
2022-12-08T22:55:31.353Z,16.42
2022-12-08T23:05:38.097Z,16.80
2022-12-08T23:10:40.993Z,16.30
2022-12-08T23:15:43.534Z,21.65
2022-12-08T23:25:48.447Z,17.33
2022-12-08T23:30:50.673Z,11.60
2022-12-08T23:41:04.374Z,16.83
2022-12-08T23:46:06.634Z,17.20
2022-12-08T23:51:09.251Z,17.85
